Streator, IL (61364)

1:12 PM CDT on March 27, 2015 (GMT -0500)
Eplin/Connell Farm 2 miles NW of | | Change Station
CLOSE
Current Station
Personal Weather Station
Location: Streator, IL
Elevation: 626 ft
Nearby Weather Stations

Elev 626 ft 41.17 °N, 88.85 °W | Updated 2 minutes ago

Clear
Clear
31.6 °F
Feels Like 22 °F
N
13.0
Wind Variable Wind from NNW
Gusts 13.0 mph

Today
High -- | Low -- °F
--% Chance of Precip.
Yesterday
High -- | Low -- °F
Precip. -- in
6:47 AM 7:14 PM
First Quarter, 54% visible
Pressure 30.17 in
Visibility 10.0 miles
Clouds Clear
Windchill 22 °F
Dew Point 17 °F
Humidity 55%
Rainfall 0.00 in
Snow Depth Not available.
UV 8 out of 12
Pollen 4.40 out of 12
Air Quality Not available.
Flu Activity Not available.
METAR KPNT 271755Z AUTO 35012G19KT 10SM CLR 00/M11 A3017 RMK AO2 T00041109 10008 21025

More Conditions Fewer Conditions

Pressure 30.17 in
Visibility 10.0 miles
Clouds Clear
Windchill 22 °F
Dew Point 17 °F
Humidity 55%
Rainfall 0.00 in
Snow Depth Not available.
UV 8 out of 12
Pollen 4.40 out of 12
Air Quality Not available.
Flu Activity Not available.
METAR KPNT 271755Z AUTO 35012G19KT 10SM CLR 00/M11 A3017 RMK AO2 T00041109 10008 21025

More Conditions Fewer Conditions

10-Day Weather Forecast

Almanac

Astronomy

Mar. 27, 2015 Rise Set
Actual Time
Civil Twilight
Nautical Twilight
Astronomical Twilight
Moon
Length of Visible Light
Length of Day
Tomorrow will be .
, % of the Moon is Illuminated

Today's Extremes

State Highs State Lows

Community

WunderPhotos

Upload Photos

1,808,773 photos uploaded!

WunderBlogs® & News

Nearby

Air Quality

  Air Quality AQ Index Pollutant
Not available.

Snow Depth

Station Depth Elevation

Earthquake Activity

City Distance Mag. Time & Date
Minimum magnitude displayed is 2.5.

Coastal Water Temperatures

Place Temperature

Stations

Nearby Weather Stations

Station Location Temp. Windchill Dew Point Humidity Wind Precip. Elev Updated Type